sensor_id;sensor_type;location;lat;lon;timestamp;P1;durP1;ratioP1;P2;durP2;ratioP2
7607;SDS011;3845;48.120;11.534;2022-09-02T00:00:23;2.83;;;2.20;;
7607;SDS011;3845;48.120;11.534;2022-09-02T00:02:48;2.90;;;2.10;;
7607;SDS011;3845;48.120;11.534;2022-09-02T00:05:14;2.40;;;2.13;;
7607;SDS011;3845;48.120;11.534;2022-09-02T00:07:41;3.27;;;1.90;;
7607;SDS011;3845;48.120;11.534;2022-09-02T00:10:06;2.27;;;1.90;;
7607;SDS011;3845;48.120;11.534;2022-09-02T00:12:32;2.10;;;1.90;;
7607;SDS011;3845;48.120;11.534;2022-09-02T00:14:57;3.10;;;1.73;;
7607;SDS011;3845;48.120;11.534;2022-09-02T00:17:23;3.17;;;2.03;;
7607;SDS011;3845;48.120;11.534;2022-09-02T00:19:48;2.30;;;2.10;;
7607;SDS011;3845;48.120;11.534;2022-09-02T00:22:13;2.17;;;1.97;;
7607;SDS011;3845;48.120;11.534;2022-09-02T00:24:38;2.10;;;1.90;;
7607;SDS011;3845;48.120;11.534;2022-09-02T00:27:04;2.30;;;2.10;;
7607;SDS011;3845;48.120;11.534;2022-09-02T00:29:29;3.67;;;2.23;;
7607;SDS011;3845;48.120;11.534;2022-09-02T00:31:56;2.10;;;1.90;;
7607;SDS011;3845;48.120;11.534;2022-09-02T00:34:22;2.30;;;2.00;;
7607;SDS011;3845;48.120;11.534;2022-09-02T00:36:47;2.23;;;2.03;;
7607;SDS011;3845;48.120;11.534;2022-09-02T00:39:12;2.30;;;1.90;;
7607;SDS011;3845;48.120;11.534;2022-09-02T00:41:39;2.17;;;1.97;;
7607;SDS011;3845;48.120;11.534;2022-09-02T00:44:06;2.10;;;1.90;;
7607;SDS011;3845;48.120;11.534;2022-09-02T00:46:34;2.63;;;2.07;;
7607;SDS011;3845;48.120;11.534;2022-09-02T00:49:02;2.87;;;2.20;;
7607;SDS011;3845;48.120;11.534;2022-09-02T00:51:36;2.37;;;2.13;;
7607;SDS011;3845;48.120;11.534;2022-09-02T00:54:05;2.40;;;2.10;;
7607;SDS011;3845;48.120;11.534;2022-09-02T00:56:31;3.23;;;2.30;;
7607;SDS011;3845;48.120;11.534;2022-09-02T00:58:58;2.30;;;2.10;;
7607;SDS011;3845;48.120;11.534;2022-09-02T01:01:24;2.20;;;2.00;;
7607;SDS011;3845;48.120;11.534;2022-09-02T01:03:49;2.40;;;2.10;;
7607;SDS011;3845;48.120;11.534;2022-09-02T01:06:15;2.30;;;2.10;;
7607;SDS011;3845;48.120;11.534;2022-09-02T01:08:48;2.97;;;2.10;;
7607;SDS011;3845;48.120;11.534;2022-09-02T01:11:18;3.13;;;2.43;;
7607;SDS011;3845;48.120;11.534;2022-09-02T01:13:45;2.57;;;2.10;;
7607;SDS011;3845;48.120;11.534;2022-09-02T01:16:16;2.23;;;2.03;;
7607;SDS011;3845;48.120;11.534;2022-09-02T01:18:48;2.20;;;2.00;;
7607;SDS011;3845;48.120;11.534;2022-09-02T01:21:14;3.07;;;1.90;;
7607;SDS011;3845;48.120;11.534;2022-09-02T01:23:40;2.53;;;1.93;;
7607;SDS011;3845;48.120;11.534;2022-09-02T01:26:05;3.33;;;2.10;;
7607;SDS011;3845;48.120;11.534;2022-09-02T01:28:31;2.53;;;2.17;;
7607;SDS011;3845;48.120;11.534;2022-09-02T01:30:58;2.40;;;2.20;;
7607;SDS011;3845;48.120;11.534;2022-09-02T01:33:23;2.97;;;2.50;;
7607;SDS011;3845;48.120;11.534;2022-09-02T01:35:49;2.53;;;2.10;;
7607;SDS011;3845;48.120;11.534;2022-09-02T01:38:15;3.23;;;2.23;;
7607;SDS011;3845;48.120;11.534;2022-09-02T01:40:40;2.70;;;2.40;;
7607;SDS011;3845;48.120;11.534;2022-09-02T01:43:08;3.40;;;2.43;;
7607;SDS011;3845;48.120;11.534;2022-09-02T01:45:36;3.13;;;2.57;;
7607;SDS011;3845;48.120;11.534;2022-09-02T01:48:02;2.63;;;2.20;;
7607;SDS011;3845;48.120;11.534;2022-09-02T01:50:28;3.40;;;2.40;;
7607;SDS011;3845;48.120;11.534;2022-09-02T01:52:55;3.00;;;2.67;;
7607;SDS011;3845;48.120;11.534;2022-09-02T01:55:21;3.23;;;2.40;;
7607;SDS011;3845;48.120;11.534;2022-09-02T01:57:46;2.77;;;2.53;;
7607;SDS011;3845;48.120;11.534;2022-09-02T02:00:12;3.57;;;2.37;;
7607;SDS011;3845;48.120;11.534;2022-09-02T02:02:38;2.90;;;2.50;;
7607;SDS011;3845;48.120;11.534;2022-09-02T02:05:04;3.13;;;2.50;;
7607;SDS011;3845;48.120;11.534;2022-09-02T02:07:29;2.67;;;2.40;;
7607;SDS011;3845;48.120;11.534;2022-09-02T02:09:55;2.67;;;2.47;;
7607;SDS011;3845;48.120;11.534;2022-09-02T02:12:20;2.50;;;2.30;;
7607;SDS011;3845;48.120;11.534;2022-09-02T02:14:46;2.40;;;2.20;;
7607;SDS011;3845;48.120;11.534;2022-09-02T02:17:11;2.73;;;2.40;;
7607;SDS011;3845;48.120;11.534;2022-09-02T02:19:37;2.57;;;2.30;;
7607;SDS011;3845;48.120;11.534;2022-09-02T02:22:02;3.37;;;2.90;;
7607;SDS011;3845;48.120;11.534;2022-09-02T02:24:28;2.77;;;2.50;;
7607;SDS011;3845;48.120;11.534;2022-09-02T02:26:53;4.00;;;2.63;;
7607;SDS011;3845;48.120;11.534;2022-09-02T02:29:19;2.30;;;2.10;;
7607;SDS011;3845;48.120;11.534;2022-09-02T02:31:45;3.10;;;2.50;;
7607;SDS011;3845;48.120;11.534;2022-09-02T02:34:10;2.87;;;2.50;;
7607;SDS011;3845;48.120;11.534;2022-09-02T02:36:37;3.37;;;2.30;;
7607;SDS011;3845;48.120;11.534;2022-09-02T02:39:03;2.80;;;2.20;;
7607;SDS011;3845;48.120;11.534;2022-09-02T02:41:29;3.20;;;2.37;;
7607;SDS011;3845;48.120;11.534;2022-09-02T02:43:55;2.67;;;2.43;;
7607;SDS011;3845;48.120;11.534;2022-09-02T02:46:20;2.60;;;2.30;;
7607;SDS011;3845;48.120;11.534;2022-09-02T02:48:45;3.00;;;2.40;;
7607;SDS011;3845;48.120;11.534;2022-09-02T02:51:11;4.30;;;2.90;;
7607;SDS011;3845;48.120;11.534;2022-09-02T02:53:36;2.70;;;2.33;;
7607;SDS011;3845;48.120;11.534;2022-09-02T02:56:02;2.77;;;2.43;;
7607;SDS011;3845;48.120;11.534;2022-09-02T02:58:28;4.43;;;2.47;;
7607;SDS011;3845;48.120;11.534;2022-09-02T03:00:54;3.10;;;2.67;;
7607;SDS011;3845;48.120;11.534;2022-09-02T03:03:20;3.17;;;2.40;;
7607;SDS011;3845;48.120;11.534;2022-09-02T03:05:46;3.03;;;2.73;;
7607;SDS011;3845;48.120;11.534;2022-09-02T03:08:13;3.00;;;2.60;;
7607;SDS011;3845;48.120;11.534;2022-09-02T03:10:39;2.53;;;2.33;;
7607;SDS011;3845;48.120;11.534;2022-09-02T03:13:06;2.40;;;2.17;;
7607;SDS011;3845;48.120;11.534;2022-09-02T03:15:31;3.23;;;2.43;;
7607;SDS011;3845;48.120;11.534;2022-09-02T03:17:57;2.83;;;2.57;;
7607;SDS011;3845;48.120;11.534;2022-09-02T03:20:22;3.03;;;2.40;;
7607;SDS011;3845;48.120;11.534;2022-09-02T03:22:48;2.63;;;2.20;;
7607;SDS011;3845;48.120;11.534;2022-09-02T03:25:16;3.13;;;2.30;;
7607;SDS011;3845;48.120;11.534;2022-09-02T03:27:43;2.40;;;2.20;;
7607;SDS011;3845;48.120;11.534;2022-09-02T03:30:10;2.50;;;2.30;;
7607;SDS011;3845;48.120;11.534;2022-09-02T03:32:38;2.30;;;2.10;;
7607;SDS011;3845;48.120;11.534;2022-09-02T03:35:04;2.93;;;1.93;;
7607;SDS011;3845;48.120;11.534;2022-09-02T03:37:31;2.43;;;2.23;;
7607;SDS011;3845;48.120;11.534;2022-09-02T03:39:57;2.50;;;2.30;;
7607;SDS011;3845;48.120;11.534;2022-09-02T03:42:22;2.50;;;2.30;;
7607;SDS011;3845;48.120;11.534;2022-09-02T03:44:47;3.70;;;2.50;;
7607;SDS011;3845;48.120;11.534;2022-09-02T03:47:13;4.97;;;2.30;;
7607;SDS011;3845;48.120;11.534;2022-09-02T03:49:39;2.47;;;2.27;;
7607;SDS011;3845;48.120;11.534;2022-09-02T03:52:04;3.20;;;2.50;;
7607;SDS011;3845;48.120;11.534;2022-09-02T03:54:30;2.70;;;2.47;;
7607;SDS011;3845;48.120;11.534;2022-09-02T03:56:56;2.40;;;2.20;;
7607;SDS011;3845;48.120;11.534;2022-09-02T03:59:21;2.50;;;2.30;;
7607;SDS011;3845;48.120;11.534;2022-09-02T04:01:46;2.83;;;2.40;;
7607;SDS011;3845;48.120;11.534;2022-09-02T04:04:12;2.87;;;2.50;;
7607;SDS011;3845;48.120;11.534;2022-09-02T04:06:37;2.90;;;2.43;;
7607;SDS011;3845;48.120;11.534;2022-09-02T04:09:03;2.50;;;2.30;;
7607;SDS011;3845;48.120;11.534;2022-09-02T04:11:29;3.27;;;2.63;;
7607;SDS011;3845;48.120;11.534;2022-09-02T04:13:55;2.57;;;2.30;;
7607;SDS011;3845;48.120;11.534;2022-09-02T04:16:22;3.17;;;2.20;;
7607;SDS011;3845;48.120;11.534;2022-09-02T04:18:52;2.87;;;2.23;;
7607;SDS011;3845;48.120;11.534;2022-09-02T04:21:19;2.67;;;2.43;;
7607;SDS011;3845;48.120;11.534;2022-09-02T04:23:44;3.37;;;2.60;;
7607;SDS011;3845;48.120;11.534;2022-09-02T04:26:12;2.70;;;2.50;;
7607;SDS011;3845;48.120;11.534;2022-09-02T04:28:38;2.90;;;2.50;;
7607;SDS011;3845;48.120;11.534;2022-09-02T04:31:05;3.10;;;2.80;;
7607;SDS011;3845;48.120;11.534;2022-09-02T04:33:31;2.97;;;2.70;;
7607;SDS011;3845;48.120;11.534;2022-09-02T04:35:58;2.90;;;2.60;;
7607;SDS011;3845;48.120;11.534;2022-09-02T04:38:23;2.70;;;2.50;;
7607;SDS011;3845;48.120;11.534;2022-09-02T04:40:48;3.10;;;2.63;;
7607;SDS011;3845;48.120;11.534;2022-09-02T04:43:14;2.87;;;2.60;;
7607;SDS011;3845;48.120;11.534;2022-09-02T04:45:40;4.30;;;2.83;;
7607;SDS011;3845;48.120;11.534;2022-09-02T04:48:08;3.20;;;2.90;;
7607;SDS011;3845;48.120;11.534;2022-09-02T04:50:34;3.33;;;3.00;;
7607;SDS011;3845;48.120;11.534;2022-09-02T04:53:00;3.83;;;3.27;;
7607;SDS011;3845;48.120;11.534;2022-09-02T04:55:26;3.60;;;3.30;;
7607;SDS011;3845;48.120;11.534;2022-09-02T04:57:51;3.67;;;3.17;;
7607;SDS011;3845;48.120;11.534;2022-09-02T05:00:16;3.27;;;2.97;;
7607;SDS011;3845;48.120;11.534;2022-09-02T05:02:43;3.30;;;3.00;;
7607;SDS011;3845;48.120;11.534;2022-09-02T05:05:08;3.57;;;3.07;;
7607;SDS011;3845;48.120;11.534;2022-09-02T05:07:35;3.07;;;2.77;;
7607;SDS011;3845;48.120;11.534;2022-09-02T05:10:02;3.27;;;2.97;;
7607;SDS011;3845;48.120;11.534;2022-09-02T05:12:29;3.10;;;2.80;;
7607;SDS011;3845;48.120;11.534;2022-09-02T05:14:55;4.10;;;2.90;;
7607;SDS011;3845;48.120;11.534;2022-09-02T05:17:24;3.93;;;3.07;;
7607;SDS011;3845;48.120;11.534;2022-09-02T05:19:52;3.37;;;3.07;;
7607;SDS011;3845;48.120;11.534;2022-09-02T05:22:17;3.30;;;2.90;;
7607;SDS011;3845;48.120;11.534;2022-09-02T05:24:43;4.70;;;3.30;;
7607;SDS011;3845;48.120;11.534;2022-09-02T05:27:09;3.17;;;2.87;;
7607;SDS011;3845;48.120;11.534;2022-09-02T05:29:34;4.27;;;3.87;;
7607;SDS011;3845;48.120;11.534;2022-09-02T05:32:00;4.13;;;3.53;;
7607;SDS011;3845;48.120;11.534;2022-09-02T05:34:26;4.20;;;3.70;;
7607;SDS011;3845;48.120;11.534;2022-09-02T05:36:51;4.30;;;3.90;;
7607;SDS011;3845;48.120;11.534;2022-09-02T05:39:17;3.80;;;3.40;;
7607;SDS011;3845;48.120;11.534;2022-09-02T05:41:42;4.17;;;3.70;;
7607;SDS011;3845;48.120;11.534;2022-09-02T05:44:07;4.73;;;3.63;;
7607;SDS011;3845;48.120;11.534;2022-09-02T05:46:33;4.00;;;3.40;;
7607;SDS011;3845;48.120;11.534;2022-09-02T05:48:59;4.53;;;3.10;;
7607;SDS011;3845;48.120;11.534;2022-09-02T05:51:52;3.97;;;3.47;;
7607;SDS011;3845;48.120;11.534;2022-09-02T05:54:26;3.50;;;3.20;;
7607;SDS011;3845;48.120;11.534;2022-09-02T05:56:55;3.40;;;2.80;;
7607;SDS011;3845;48.120;11.534;2022-09-02T05:59:22;5.50;;;3.43;;
7607;SDS011;3845;48.120;11.534;2022-09-02T06:01:49;3.97;;;3.57;;
7607;SDS011;3845;48.120;11.534;2022-09-02T06:04:15;5.57;;;3.63;;
7607;SDS011;3845;48.120;11.534;2022-09-02T06:06:41;3.93;;;3.47;;
7607;SDS011;3845;48.120;11.534;2022-09-02T06:09:07;4.23;;;3.30;;
7607;SDS011;3845;48.120;11.534;2022-09-02T06:11:33;4.63;;;4.23;;
7607;SDS011;3845;48.120;11.534;2022-09-02T06:14:03;4.70;;;4.20;;
7607;SDS011;3845;48.120;11.534;2022-09-02T06:16:31;3.83;;;3.50;;
7607;SDS011;3845;48.120;11.534;2022-09-02T06:18:56;5.63;;;4.20;;
7607;SDS011;3845;48.120;11.534;2022-09-02T06:21:22;4.47;;;3.73;;
7607;SDS011;3845;48.120;11.534;2022-09-02T06:23:47;3.73;;;3.43;;
7607;SDS011;3845;48.120;11.534;2022-09-02T06:26:13;4.20;;;3.80;;
7607;SDS011;3845;48.120;11.534;2022-09-02T06:28:39;4.37;;;3.83;;
7607;SDS011;3845;48.120;11.534;2022-09-02T06:31:12;4.30;;;3.37;;
7607;SDS011;3845;48.120;11.534;2022-09-02T06:33:40;3.73;;;3.43;;
7607;SDS011;3845;48.120;11.534;2022-09-02T06:36:06;4.33;;;3.40;;
7607;SDS011;3845;48.120;11.534;2022-09-02T06:38:35;3.77;;;3.10;;
7607;SDS011;3845;48.120;11.534;2022-09-02T06:41:02;3.30;;;2.97;;
7607;SDS011;3845;48.120;11.534;2022-09-02T06:43:27;3.47;;;3.17;;
7607;SDS011;3845;48.120;11.534;2022-09-02T06:45:54;5.57;;;4.23;;
7607;SDS011;3845;48.120;11.534;2022-09-02T06:48:20;4.47;;;3.83;;
7607;SDS011;3845;48.120;11.534;2022-09-02T06:50:45;3.63;;;3.30;;
7607;SDS011;3845;48.120;11.534;2022-09-02T06:53:11;5.93;;;4.80;;
7607;SDS011;3845;48.120;11.534;2022-09-02T06:55:38;7.10;;;4.63;;
7607;SDS011;3845;48.120;11.534;2022-09-02T06:58:05;4.60;;;3.70;;
7607;SDS011;3845;48.120;11.534;2022-09-02T07:00:30;4.83;;;3.90;;
7607;SDS011;3845;48.120;11.534;2022-09-02T07:02:56;4.00;;;3.57;;
7607;SDS011;3845;48.120;11.534;2022-09-02T07:05:41;6.93;;;3.90;;
7607;SDS011;3845;48.120;11.534;2022-09-02T07:08:06;3.20;;;2.90;;
7607;SDS011;3845;48.120;11.534;2022-09-02T07:10:31;3.40;;;3.10;;
7607;SDS011;3845;48.120;11.534;2022-09-02T07:12:57;4.00;;;3.60;;
7607;SDS011;3845;48.120;11.534;2022-09-02T07:15:22;6.50;;;3.90;;
7607;SDS011;3845;48.120;11.534;2022-09-02T07:17:47;4.50;;;4.10;;
7607;SDS011;3845;48.120;11.534;2022-09-02T07:20:13;5.27;;;3.40;;
7607;SDS011;3845;48.120;11.534;2022-09-02T07:22:40;7.50;;;3.30;;
7607;SDS011;3845;48.120;11.534;2022-09-02T07:25:05;4.80;;;4.07;;
7607;SDS011;3845;48.120;11.534;2022-09-02T07:27:33;4.03;;;3.40;;
7607;SDS011;3845;48.120;11.534;2022-09-02T07:29:59;5.10;;;3.50;;
7607;SDS011;3845;48.120;11.534;2022-09-02T07:32:24;4.70;;;3.40;;
7607;SDS011;3845;48.120;11.534;2022-09-02T07:34:49;3.90;;;3.40;;
7607;SDS011;3845;48.120;11.534;2022-09-02T07:37:15;4.10;;;3.70;;
7607;SDS011;3845;48.120;11.534;2022-09-02T07:39:40;4.10;;;3.47;;
7607;SDS011;3845;48.120;11.534;2022-09-02T07:42:07;4.07;;;3.00;;
7607;SDS011;3845;48.120;11.534;2022-09-02T07:44:32;4.53;;;3.50;;
7607;SDS011;3845;48.120;11.534;2022-09-02T07:46:58;3.93;;;3.57;;
7607;SDS011;3845;48.120;11.534;2022-09-02T07:49:23;4.30;;;3.90;;
7607;SDS011;3845;48.120;11.534;2022-09-02T07:51:48;5.23;;;4.00;;
7607;SDS011;3845;48.120;11.534;2022-09-02T07:54:16;4.20;;;3.33;;
7607;SDS011;3845;48.120;11.534;2022-09-02T07:56:42;5.17;;;3.93;;
7607;SDS011;3845;48.120;11.534;2022-09-02T07:59:08;4.00;;;3.50;;
7607;SDS011;3845;48.120;11.534;2022-09-02T08:01:34;3.63;;;3.10;;
7607;SDS011;3845;48.120;11.534;2022-09-02T08:04:00;4.73;;;3.60;;
7607;SDS011;3845;48.120;11.534;2022-09-02T08:06:26;3.53;;;3.23;;
7607;SDS011;3845;48.120;11.534;2022-09-02T08:08:53;3.00;;;2.70;;
7607;SDS011;3845;48.120;11.534;2022-09-02T08:11:19;3.47;;;3.17;;
7607;SDS011;3845;48.120;11.534;2022-09-02T08:13:45;4.03;;;3.03;;
7607;SDS011;3845;48.120;11.534;2022-09-02T08:16:10;3.70;;;3.03;;
7607;SDS011;3845;48.120;11.534;2022-09-02T08:18:36;6.93;;;3.00;;
7607;SDS011;3845;48.120;11.534;2022-09-02T08:21:01;4.73;;;2.90;;
7607;SDS011;3845;48.120;11.534;2022-09-02T08:23:26;4.03;;;2.47;;
7607;SDS011;3845;48.120;11.534;2022-09-02T08:25:52;3.10;;;2.80;;
7607;SDS011;3845;48.120;11.534;2022-09-02T08:28:17;3.60;;;2.63;;
7607;SDS011;3845;48.120;11.534;2022-09-02T08:30:42;3.20;;;2.23;;
7607;SDS011;3845;48.120;11.534;2022-09-02T08:33:08;2.90;;;2.10;;
7607;SDS011;3845;48.120;11.534;2022-09-02T08:35:33;2.90;;;2.47;;
7607;SDS011;3845;48.120;11.534;2022-09-02T08:37:59;2.63;;;2.40;;
7607;SDS011;3845;48.120;11.534;2022-09-02T08:40:27;2.40;;;2.10;;
7607;SDS011;3845;48.120;11.534;2022-09-02T08:43:17;2.20;;;2.00;;
7607;SDS011;3845;48.120;11.534;2022-09-02T08:45:57;3.33;;;2.20;;
7607;SDS011;3845;48.120;11.534;2022-09-02T08:51:19;2.70;;;2.03;;
7607;SDS011;3845;48.120;11.534;2022-09-02T08:53:53;2.27;;;1.93;;
7607;SDS011;3845;48.120;11.534;2022-09-02T08:56:23;3.03;;;2.37;;
7607;SDS011;3845;48.120;11.534;2022-09-02T08:58:50;2.10;;;1.90;;
7607;SDS011;3845;48.120;11.534;2022-09-02T09:01:25;2.10;;;1.90;;
7607;SDS011;3845;48.120;11.534;2022-09-02T09:15:28;4.00;;;2.20;;
7607;SDS011;3845;48.120;11.534;2022-09-02T09:17:58;4.23;;;2.10;;
7607;SDS011;3845;48.120;11.534;2022-09-02T09:20:28;2.00;;;1.80;;
7607;SDS011;3845;48.120;11.534;2022-09-02T09:22:57;1.93;;;1.70;;
7607;SDS011;3845;48.120;11.534;2022-09-02T09:25:24;2.33;;;1.80;;
7607;SDS011;3845;48.120;11.534;2022-09-02T09:27:54;2.17;;;1.97;;
7607;SDS011;3845;48.120;11.534;2022-09-02T09:30:23;3.23;;;2.80;;
7607;SDS011;3845;48.120;11.534;2022-09-02T09:32:49;2.90;;;2.60;;
7607;SDS011;3845;48.120;11.534;2022-09-02T09:35:19;3.10;;;2.80;;
7607;SDS011;3845;48.120;11.534;2022-09-02T09:37:51;2.70;;;2.30;;
7607;SDS011;3845;48.120;11.534;2022-09-02T09:45:46;2.77;;;1.97;;
7607;SDS011;3845;48.120;11.534;2022-09-02T09:53:22;2.00;;;1.80;;
7607;SDS011;3845;48.120;11.534;2022-09-02T09:55:59;2.37;;;1.70;;
7607;SDS011;3845;48.120;11.534;2022-09-02T10:01:18;3.67;;;1.80;;
7607;SDS011;3845;48.120;11.534;2022-09-02T10:03:54;2.60;;;2.00;;
7607;SDS011;3845;48.120;11.534;2022-09-02T10:06:34;2.20;;;1.90;;
7607;SDS011;3845;48.120;11.534;2022-09-02T10:09:06;2.40;;;1.80;;
7607;SDS011;3845;48.120;11.534;2022-09-02T10:11:54;3.47;;;1.90;;
7607;SDS011;3845;48.120;11.534;2022-09-02T10:14:43;2.23;;;1.80;;
7607;SDS011;3845;48.120;11.534;2022-09-02T10:30:28;2.77;;;1.90;;
7607;SDS011;3845;48.120;11.534;2022-09-02T10:33:12;4.07;;;2.47;;
7607;SDS011;3845;48.120;11.534;2022-09-02T10:35:55;2.30;;;2.10;;
7607;SDS011;3845;48.120;11.534;2022-09-02T10:43:57;2.67;;;1.70;;
7607;SDS011;3845;48.120;11.534;2022-09-02T10:46:26;2.50;;;1.90;;
7607;SDS011;3845;48.120;11.534;2022-09-02T10:49:02;2.50;;;2.10;;
7607;SDS011;3845;48.120;11.534;2022-09-02T10:51:48;2.07;;;1.70;;
7607;SDS011;3845;48.120;11.534;2022-09-02T10:57:29;2.10;;;1.90;;
7607;SDS011;3845;48.120;11.534;2022-09-02T11:02:40;1.73;;;1.60;;
7607;SDS011;3845;48.120;11.534;2022-09-02T11:05:11;2.60;;;1.77;;
7607;SDS011;3845;48.120;11.534;2022-09-02T11:10:42;2.80;;;2.10;;
7607;SDS011;3845;48.120;11.534;2022-09-02T11:19:16;1.90;;;1.70;;
7607;SDS011;3845;48.120;11.534;2022-09-02T11:21:54;2.73;;;1.90;;
7607;SDS011;3845;48.120;11.534;2022-09-02T11:24:36;1.63;;;1.50;;
7607;SDS011;3845;48.120;11.534;2022-09-02T11:27:27;2.17;;;1.60;;
7607;SDS011;3845;48.120;11.534;2022-09-02T11:30:16;3.33;;;1.90;;
7607;SDS011;3845;48.120;11.534;2022-09-02T11:32:49;3.80;;;1.90;;
7607;SDS011;3845;48.120;11.534;2022-09-02T11:35:19;1.90;;;1.60;;
7607;SDS011;3845;48.120;11.534;2022-09-02T11:40:25;3.20;;;2.07;;
7607;SDS011;3845;48.120;11.534;2022-09-02T11:43:11;4.30;;;1.70;;
7607;SDS011;3845;48.120;11.534;2022-09-02T11:53:59;2.80;;;2.00;;
7607;SDS011;3845;48.120;11.534;2022-09-02T11:56:28;3.30;;;1.70;;
7607;SDS011;3845;48.120;11.534;2022-09-02T11:58:58;2.10;;;1.67;;
7607;SDS011;3845;48.120;11.534;2022-09-02T12:01:36;1.90;;;1.60;;
7607;SDS011;3845;48.120;11.534;2022-09-02T12:04:04;2.67;;;2.20;;
7607;SDS011;3845;48.120;11.534;2022-09-02T12:06:35;2.30;;;2.10;;
7607;SDS011;3845;48.120;11.534;2022-09-02T12:09:03;2.33;;;1.67;;
7607;SDS011;3845;48.120;11.534;2022-09-02T12:11:39;2.37;;;1.50;;
7607;SDS011;3845;48.120;11.534;2022-09-02T12:14:07;2.33;;;1.40;;
7607;SDS011;3845;48.120;11.534;2022-09-02T12:16:44;1.60;;;1.40;;
7607;SDS011;3845;48.120;11.534;2022-09-02T12:19:28;1.83;;;1.40;;
7607;SDS011;3845;48.120;11.534;2022-09-02T12:24:47;2.33;;;1.50;;
7607;SDS011;3845;48.120;11.534;2022-09-02T12:27:18;1.50;;;1.40;;
7607;SDS011;3845;48.120;11.534;2022-09-02T12:29:47;2.03;;;1.47;;
7607;SDS011;3845;48.120;11.534;2022-09-02T12:32:30;1.43;;;1.30;;
7607;SDS011;3845;48.120;11.534;2022-09-02T12:35:32;1.73;;;1.50;;
7607;SDS011;3845;48.120;11.534;2022-09-02T12:40:36;1.90;;;1.50;;
7607;SDS011;3845;48.120;11.534;2022-09-02T12:43:13;1.77;;;1.40;;
7607;SDS011;3845;48.120;11.534;2022-09-02T12:45:44;1.93;;;1.47;;
7607;SDS011;3845;48.120;11.534;2022-09-02T12:48:15;2.37;;;1.53;;
7607;SDS011;3845;48.120;11.534;2022-09-02T12:58:32;3.13;;;1.73;;
7607;SDS011;3845;48.120;11.534;2022-09-02T13:01:08;2.30;;;1.70;;
7607;SDS011;3845;48.120;11.534;2022-09-02T13:06:35;1.93;;;1.67;;
7607;SDS011;3845;48.120;11.534;2022-09-02T13:09:22;1.73;;;1.50;;
7607;SDS011;3845;48.120;11.534;2022-09-02T13:17:28;1.67;;;1.50;;
7607;SDS011;3845;48.120;11.534;2022-09-02T13:26:31;3.53;;;1.60;;
7607;SDS011;3845;48.120;11.534;2022-09-02T13:31:36;1.60;;;1.50;;
7607;SDS011;3845;48.120;11.534;2022-09-02T13:34:02;1.70;;;1.40;;
7607;SDS011;3845;48.120;11.534;2022-09-02T13:36:35;1.50;;;1.30;;
7607;SDS011;3845;48.120;11.534;2022-09-02T13:39:08;1.77;;;1.40;;
7607;SDS011;3845;48.120;11.534;2022-09-02T13:41:41;2.97;;;2.40;;
7607;SDS011;3845;48.120;11.534;2022-09-02T13:44:08;2.27;;;1.70;;
7607;SDS011;3845;48.120;11.534;2022-09-02T13:47:12;1.70;;;1.60;;
7607;SDS011;3845;48.120;11.534;2022-09-02T13:49:34;5.60;;;1.87;;
7607;SDS011;3845;48.120;11.534;2022-09-02T13:52:00;3.27;;;1.70;;
7607;SDS011;3845;48.120;11.534;2022-09-02T13:54:31;1.80;;;1.60;;
7607;SDS011;3845;48.120;11.534;2022-09-02T13:56:58;2.57;;;1.73;;
7607;SDS011;3845;48.120;11.534;2022-09-02T13:59:35;2.13;;;1.90;;
7607;SDS011;3845;48.120;11.534;2022-09-02T14:04:53;2.93;;;1.53;;
7607;SDS011;3845;48.120;11.534;2022-09-02T14:07:40;3.60;;;1.70;;
7607;SDS011;3845;48.120;11.534;2022-09-02T14:10:08;2.37;;;1.50;;
7607;SDS011;3845;48.120;11.534;2022-09-02T14:12:35;2.33;;;1.60;;
7607;SDS011;3845;48.120;11.534;2022-09-02T14:15:02;2.53;;;1.83;;
7607;SDS011;3845;48.120;11.534;2022-09-02T14:17:30;2.17;;;1.80;;
7607;SDS011;3845;48.120;11.534;2022-09-02T14:22:40;2.90;;;1.70;;
7607;SDS011;3845;48.120;11.534;2022-09-02T14:25:15;2.37;;;1.70;;
7607;SDS011;3845;48.120;11.534;2022-09-02T14:27:48;2.27;;;1.50;;
7607;SDS011;3845;48.120;11.534;2022-09-02T14:30:23;3.50;;;1.67;;
7607;SDS011;3845;48.120;11.534;2022-09-02T14:35:54;3.90;;;1.83;;
7607;SDS011;3845;48.120;11.534;2022-09-02T14:38:24;3.10;;;1.80;;
7607;SDS011;3845;48.120;11.534;2022-09-02T14:40:57;2.50;;;1.57;;
7607;SDS011;3845;48.120;11.534;2022-09-02T14:43:24;1.90;;;1.67;;
7607;SDS011;3845;48.120;11.534;2022-09-02T14:45:49;1.90;;;1.70;;
7607;SDS011;3845;48.120;11.534;2022-09-02T14:48:22;1.90;;;1.70;;
7607;SDS011;3845;48.120;11.534;2022-09-02T14:50:48;2.10;;;1.67;;
7607;SDS011;3845;48.120;11.534;2022-09-02T14:53:18;2.53;;;1.60;;
7607;SDS011;3845;48.120;11.534;2022-09-02T14:55:52;3.27;;;1.70;;
7607;SDS011;3845;48.120;11.534;2022-09-02T14:58:19;1.70;;;1.57;;
7607;SDS011;3845;48.120;11.534;2022-09-02T15:00:47;3.63;;;1.67;;
7607;SDS011;3845;48.120;11.534;2022-09-02T15:03:19;1.83;;;1.60;;
7607;SDS011;3845;48.120;11.534;2022-09-02T15:05:45;1.87;;;1.60;;
7607;SDS011;3845;48.120;11.534;2022-09-02T15:08:11;1.97;;;1.73;;
7607;SDS011;3845;48.120;11.534;2022-09-02T15:10:37;1.90;;;1.50;;
7607;SDS011;3845;48.120;11.534;2022-09-02T15:13:08;2.77;;;1.60;;
7607;SDS011;3845;48.120;11.534;2022-09-02T15:15:36;2.53;;;1.60;;
7607;SDS011;3845;48.120;11.534;2022-09-02T15:18:02;1.60;;;1.47;;
7607;SDS011;3845;48.120;11.534;2022-09-02T15:20:28;2.53;;;2.13;;
7607;SDS011;3845;48.120;11.534;2022-09-02T15:22:55;2.77;;;1.70;;
7607;SDS011;3845;48.120;11.534;2022-09-02T15:25:20;3.17;;;1.80;;
7607;SDS011;3845;48.120;11.534;2022-09-02T15:27:45;2.07;;;1.50;;
7607;SDS011;3845;48.120;11.534;2022-09-02T15:30:11;3.33;;;2.20;;
7607;SDS011;3845;48.120;11.534;2022-09-02T15:32:36;2.50;;;1.87;;
7607;SDS011;3845;48.120;11.534;2022-09-02T15:35:02;2.20;;;1.60;;
7607;SDS011;3845;48.120;11.534;2022-09-02T15:37:28;2.23;;;1.80;;
7607;SDS011;3845;48.120;11.534;2022-09-02T15:39:54;1.70;;;1.60;;
7607;SDS011;3845;48.120;11.534;2022-09-02T15:42:20;1.70;;;1.60;;
7607;SDS011;3845;48.120;11.534;2022-09-02T15:44:45;2.20;;;1.67;;
7607;SDS011;3845;48.120;11.534;2022-09-02T15:47:11;5.10;;;1.70;;
7607;SDS011;3845;48.120;11.534;2022-09-02T15:49:36;1.90;;;1.50;;
7607;SDS011;3845;48.120;11.534;2022-09-02T15:52:02;2.23;;;1.70;;
7607;SDS011;3845;48.120;11.534;2022-09-02T15:54:27;2.33;;;1.60;;
7607;SDS011;3845;48.120;11.534;2022-09-02T15:56:54;3.33;;;1.60;;
7607;SDS011;3845;48.120;11.534;2022-09-02T15:59:20;2.00;;;1.80;;
7607;SDS011;3845;48.120;11.534;2022-09-02T16:01:50;2.37;;;2.10;;
7607;SDS011;3845;48.120;11.534;2022-09-02T16:04:19;2.57;;;2.03;;
7607;SDS011;3845;48.120;11.534;2022-09-02T16:06:45;2.00;;;1.80;;
7607;SDS011;3845;48.120;11.534;2022-09-02T16:09:12;2.10;;;1.70;;
7607;SDS011;3845;48.120;11.534;2022-09-02T16:11:40;2.27;;;1.60;;
7607;SDS011;3845;48.120;11.534;2022-09-02T16:14:10;1.90;;;1.70;;
7607;SDS011;3845;48.120;11.534;2022-09-02T16:16:35;3.20;;;1.90;;
7607;SDS011;3845;48.120;11.534;2022-09-02T16:19:02;2.80;;;1.83;;
7607;SDS011;3845;48.120;11.534;2022-09-02T16:21:28;2.33;;;1.73;;
7607;SDS011;3845;48.120;11.534;2022-09-02T16:23:54;1.80;;;1.70;;
7607;SDS011;3845;48.120;11.534;2022-09-02T16:26:21;2.03;;;1.80;;
7607;SDS011;3845;48.120;11.534;2022-09-02T16:28:48;1.60;;;1.50;;
7607;SDS011;3845;48.120;11.534;2022-09-02T16:31:16;4.77;;;1.40;;
7607;SDS011;3845;48.120;11.534;2022-09-02T16:33:53;2.20;;;1.50;;
7607;SDS011;3845;48.120;11.534;2022-09-02T16:36:39;1.53;;;1.40;;
7607;SDS011;3845;48.120;11.534;2022-09-02T16:39:05;1.80;;;1.50;;
7607;SDS011;3845;48.120;11.534;2022-09-02T16:41:42;2.23;;;2.00;;
7607;SDS011;3845;48.120;11.534;2022-09-02T16:44:12;2.17;;;1.70;;
7607;SDS011;3845;48.120;11.534;2022-09-02T16:46:40;2.03;;;1.60;;
7607;SDS011;3845;48.120;11.534;2022-09-02T16:49:06;2.33;;;1.70;;
7607;SDS011;3845;48.120;11.534;2022-09-02T16:51:35;1.97;;;1.60;;
7607;SDS011;3845;48.120;11.534;2022-09-02T16:54:03;1.57;;;1.47;;
7607;SDS011;3845;48.120;11.534;2022-09-02T16:56:29;2.70;;;1.40;;
7607;SDS011;3845;48.120;11.534;2022-09-02T16:58:55;1.80;;;1.70;;